createdAt,value
2016-05-02T00:00:07.803Z,10.6
2016-05-02T00:00:17.819Z,10.6
2016-05-02T00:00:27.930Z,10.6
2016-05-02T00:00:37.821Z,10.6
2016-05-02T00:00:47.821Z,10.6
2016-05-02T00:00:57.821Z,10.5
2016-05-02T00:01:07.821Z,10.6
2016-05-02T00:01:17.837Z,10.5
2016-05-02T00:01:27.824Z,10.6
2016-05-02T00:01:37.840Z,10.5
2016-05-02T00:01:47.840Z,10.5
2016-05-02T00:01:57.840Z,10.6
2016-05-02T00:02:07.840Z,10.6
2016-05-02T00:02:17.855Z,10.6
2016-05-02T00:02:27.843Z,10.6
2016-05-02T00:02:37.843Z,10.6
2016-05-02T00:02:47.858Z,10.6
2016-05-02T00:02:57.843Z,10.5
2016-05-02T00:03:07.843Z,10.5
2016-05-02T00:03:17.702Z,10.5
2016-05-02T00:03:27.861Z,10.5
2016-05-02T00:03:37.705Z,10.5
2016-05-02T00:03:47.861Z,10.6
2016-05-02T00:03:57.861Z,10.7
2016-05-02T00:04:07.861Z,10.6
2016-05-02T00:04:17.861Z,10.6
2016-05-02T00:04:27.879Z,10.5
2016-05-02T00:04:37.863Z,10.5
2016-05-02T00:04:47.863Z,10.5
2016-05-02T00:04:57.863Z,10.5
2016-05-02T00:05:07.879Z,10.5
2016-05-02T00:05:17.879Z,10.6
2016-05-02T00:05:27.897Z,10.6
2016-05-02T00:05:37.882Z,10.6
2016-05-02T00:05:48.288Z,10.6
2016-05-02T00:05:58.194Z,10.6
2016-05-02T00:06:09.007Z,10.6
2016-05-02T00:06:19.244Z,10.5
2016-05-02T00:06:27.900Z,10.6
2016-05-02T00:06:37.900Z,10.6
2016-05-02T00:06:47.900Z,10.6
2016-05-02T00:06:57.744Z,10.5
2016-05-02T00:07:07.900Z,10.5
2016-05-02T00:07:17.900Z,10.6
2016-05-02T00:07:27.902Z,10.6
2016-05-02T00:07:37.902Z,10.5
2016-05-02T00:07:47.762Z,10.5
2016-05-02T00:07:57.918Z,10.6
2016-05-02T00:08:07.918Z,10.5
2016-05-02T00:08:17.918Z,10.6
2016-05-02T00:08:27.780Z,10.5
2016-05-02T00:08:37.921Z,10.5
2016-05-02T00:08:47.765Z,10.6
2016-05-02T00:08:57.937Z,10.6
2016-05-02T00:09:07.780Z,10.6
2016-05-02T00:09:17.921Z,10.5
2016-05-02T00:09:27.783Z,10.6
2016-05-02T00:09:37.940Z,10.6
2016-05-02T00:09:47.940Z,10.6
2016-05-02T00:09:57.940Z,10.6
2016-05-02T00:10:07.955Z,10.5
2016-05-02T00:10:17.940Z,10.6
2016-05-02T00:10:27.942Z,10.6
2016-05-02T00:10:37.801Z,10.6
2016-05-02T00:10:48.004Z,10.5
2016-05-02T00:10:57.957Z,10.6
2016-05-02T00:11:07.957Z,10.6
2016-05-02T00:11:17.942Z,10.6
2016-05-02T00:11:27.945Z,10.5
2016-05-02T00:11:37.804Z,10.6
2016-05-02T00:11:47.960Z,10.5
2016-05-02T00:11:57.960Z,10.5
2016-05-02T00:12:07.960Z,10.6
2016-05-02T00:12:17.976Z,10.5
2016-05-02T00:12:27.963Z,10.6
2016-05-02T00:12:37.963Z,10.5
2016-05-02T00:12:47.963Z,10.5
2016-05-02T00:12:57.963Z,10.6
2016-05-02T00:13:07.963Z,10.6
2016-05-02T00:13:17.979Z,10.5
2016-05-02T00:13:27.981Z,10.5
2016-05-02T00:13:37.965Z,10.5
2016-05-02T00:13:47.981Z,10.5
2016-05-02T00:13:57.981Z,10.6
2016-05-02T00:14:07.981Z,10.6
2016-05-02T00:14:17.981Z,10.5
2016-05-02T00:14:27.983Z,10.5
2016-05-02T00:14:37.983Z,10.6
2016-05-02T00:14:47.999Z,10.5
2016-05-02T00:14:57.999Z,10.5
2016-05-02T00:15:07.983Z,10.5
2016-05-02T00:15:17.999Z,10.6
2016-05-02T00:15:28.003Z,10.6
2016-05-02T00:15:37.846Z,10.6
2016-05-02T00:15:48.003Z,10.6
2016-05-02T00:15:58.003Z,10.5
2016-05-02T00:16:08.003Z,10.6
2016-05-02T00:16:18.003Z,10.5
2016-05-02T00:16:28.006Z,10.6
2016-05-02T00:16:38.021Z,10.6
2016-05-02T00:16:47.865Z,10.6
2016-05-02T00:16:58.021Z,10.5
2016-05-02T00:17:07.865Z,10.6
2016-05-02T00:17:17.865Z,10.5
2016-05-02T00:17:28.023Z,10.6
2016-05-02T00:17:38.023Z,10.5
2016-05-02T00:17:48.023Z,10.5
2016-05-02T00:17:58.023Z,10.5
2016-05-02T00:18:08.023Z,10.5
2016-05-02T00:18:18.023Z,10.5
2016-05-02T00:18:28.042Z,10.5
2016-05-02T00:18:38.042Z,10.5
2016-05-02T00:18:48.042Z,10.5
2016-05-02T00:18:58.042Z,10.5
2016-05-02T00:19:08.042Z,10.5
2016-05-02T00:19:18.057Z,10.5
2016-05-02T00:19:28.044Z,10.5
2016-05-02T00:19:38.044Z,10.5
2016-05-02T00:19:48.044Z,10.5
2016-05-02T00:19:58.044Z,10.5
2016-05-02T00:20:07.903Z,10.5
2016-05-02T00:20:18.059Z,10.5
2016-05-02T00:20:28.062Z,10.5
2016-05-02T00:20:38.062Z,10.5
2016-05-02T00:20:48.062Z,10.5
2016-05-02T00:20:58.062Z,10.5
2016-05-02T00:21:08.078Z,10.4
2016-05-02T00:21:18.266Z,10.6
2016-05-02T00:21:28.080Z,10.5
2016-05-02T00:21:37.924Z,10.5
2016-05-02T00:21:48.080Z,10.5
2016-05-02T00:21:58.080Z,10.5
2016-05-02T00:22:08.080Z,10.6
2016-05-02T00:22:18.080Z,10.5
2016-05-02T00:22:28.084Z,10.4
2016-05-02T00:22:38.084Z,10.5
2016-05-02T00:22:48.084Z,10.5
2016-05-02T00:22:58.100Z,10.5
2016-05-02T00:23:08.100Z,10.5
2016-05-02T00:23:18.084Z,10.5
2016-05-02T00:23:27.945Z,10.5
2016-05-02T00:23:38.102Z,10.5
2016-05-02T00:23:48.102Z,10.5
2016-05-02T00:23:57.945Z,10.5
2016-05-02T00:24:07.945Z,10.5
2016-05-02T00:24:18.117Z,10.5
2016-05-02T00:24:28.105Z,10.5
2016-05-02T00:24:38.120Z,10.5
2016-05-02T00:24:48.120Z,10.5
2016-05-02T00:24:57.964Z,10.5
2016-05-02T00:25:08.120Z,10.5
2016-05-02T00:25:18.120Z,10.5
2016-05-02T00:25:28.123Z,10.5
2016-05-02T00:25:38.123Z,10.5
2016-05-02T00:25:48.123Z,10.5
2016-05-02T00:25:58.123Z,10.5
2016-05-02T00:26:07.983Z,10.5
2016-05-02T00:26:18.155Z,10.5
2016-05-02T00:26:28.125Z,10.5
2016-05-02T00:26:38.125Z,10.5
2016-05-02T00:26:48.125Z,10.5
2016-05-02T00:26:57.985Z,10.5
2016-05-02T00:27:08.125Z,10.6
2016-05-02T00:27:18.141Z,10.5
2016-05-02T00:27:28.143Z,10.5
2016-05-02T00:27:38.143Z,10.5
2016-05-02T00:27:48.143Z,10.5
2016-05-02T00:27:58.143Z,10.5
2016-05-02T00:28:08.159Z,10.5
2016-05-02T00:28:18.159Z,10.5
2016-05-02T00:28:28.146Z,10.5
2016-05-02T00:28:38.162Z,10.5
2016-05-02T00:28:48.162Z,10.5
2016-05-02T00:28:58.162Z,10.5
2016-05-02T00:29:08.177Z,10.5
2016-05-02T00:29:18.162Z,10.4
2016-05-02T00:29:28.166Z,10.4
2016-05-02T00:29:38.166Z,10.4
2016-05-02T00:29:48.181Z,10.5
2016-05-02T00:29:58.181Z,10.4
2016-05-02T00:30:08.181Z,10.5
2016-05-02T00:30:18.025Z,10.4
2016-05-02T00:30:28.183Z,10.5
2016-05-02T00:30:38.183Z,10.5
2016-05-02T00:30:48.183Z,10.5
2016-05-02T00:30:58.183Z,10.5
2016-05-02T00:31:08.199Z,10.4
2016-05-02T00:31:18.183Z,10.4
2016-05-02T00:31:28.186Z,10.5
2016-05-02T00:31:38.202Z,10.5
2016-05-02T00:31:48.186Z,10.5
2016-05-02T00:31:58.202Z,10.5
2016-05-02T00:32:08.202Z,10.4
2016-05-02T00:32:18.202Z,10.4
2016-05-02T00:32:28.204Z,10.5
2016-05-02T00:32:38.048Z,10.5
2016-05-02T00:32:48.204Z,10.4
2016-05-02T00:32:58.204Z,10.5
2016-05-02T00:33:08.204Z,10.4
2016-05-02T00:33:18.219Z,10.4
2016-05-02T00:33:28.222Z,10.4
2016-05-02T00:33:38.222Z,10.4
2016-05-02T00:33:48.222Z,10.4
2016-05-02T00:33:58.082Z,10.4
2016-05-02T00:34:08.222Z,10.5
2016-05-02T00:34:18.222Z,10.4
2016-05-02T00:34:28.224Z,10.4
2016-05-02T00:34:38.224Z,10.3
2016-05-02T00:34:48.224Z,10.4
2016-05-02T00:34:58.224Z,10.3
2016-05-02T00:35:08.084Z,10.4
2016-05-02T00:35:18.224Z,10.3
2016-05-02T00:35:28.243Z,10.4
2016-05-02T00:35:38.243Z,10.4
2016-05-02T00:35:48.556Z,10.4
2016-05-02T00:35:58.243Z,10.3
2016-05-02T00:36:08.727Z,10.3
2016-05-02T00:36:18.243Z,10.3
2016-05-02T00:36:28.340Z,10.4
2016-05-02T00:36:38.246Z,10.3
2016-05-02T00:36:48.262Z,10.2
2016-05-02T00:36:58.262Z,10.3
2016-05-02T00:37:08.262Z,10.2
2016-05-02T00:37:18.262Z,10.3
2016-05-02T00:37:28.265Z,10.3
2016-05-02T00:37:38.124Z,10.2
2016-05-02T00:37:48.280Z,10.3
2016-05-02T00:37:58.265Z,10.3
2016-05-02T00:38:08.280Z,10.3
2016-05-02T00:38:18.124Z,10.3
2016-05-02T00:38:28.267Z,10.3
2016-05-02T00:38:38.282Z,10.3
2016-05-02T00:38:48.267Z,10.3
2016-05-02T00:38:58.282Z,10.2
2016-05-02T00:39:08.282Z,10.2
2016-05-02T00:39:18.282Z,10.3
2016-05-02T00:39:28.285Z,10.3
2016-05-02T00:39:38.285Z,10.3
2016-05-02T00:39:48.301Z,10.3
2016-05-02T00:39:58.285Z,10.3
2016-05-02T00:40:08.301Z,10.2
2016-05-02T00:40:18.301Z,10.2
2016-05-02T00:40:28.303Z,10.3
2016-05-02T00:40:38.147Z,10.2
2016-05-02T00:40:48.303Z,10.1
2016-05-02T00:40:58.303Z,10.2
2016-05-02T00:41:08.303Z,10.2
2016-05-02T00:41:18.303Z,10.1
2016-05-02T00:41:28.307Z,10.2
2016-05-02T00:41:38.323Z,10.1
2016-05-02T00:41:48.323Z,10.1
2016-05-02T00:41:58.323Z,10.1
2016-05-02T00:42:08.323Z,10.2
2016-05-02T00:42:18.323Z,10.1
2016-05-02T00:42:28.325Z,10.1
2016-05-02T00:42:38.325Z,10.1
2016-05-02T00:42:48.340Z,10.2
2016-05-02T00:42:58.325Z,10.2
2016-05-02T00:43:08.325Z,10.2
2016-05-02T00:43:18.340Z,10.1
2016-05-02T00:43:28.343Z,10.2
2016-05-02T00:43:38.203Z,10.1
2016-05-02T00:43:48.343Z,10.1
2016-05-02T00:43:58.328Z,10.1
2016-05-02T00:44:08.187Z,10.1
2016-05-02T00:44:18.343Z,10.1
2016-05-02T00:44:28.345Z,10.1
2016-05-02T00:44:38.345Z,10.1
2016-05-02T00:44:48.361Z,10.1
2016-05-02T00:44:58.361Z,10.1
2016-05-02T00:45:08.345Z,10.2
2016-05-02T00:45:18.361Z,10.1
2016-05-02T00:45:28.364Z,10.1
2016-05-02T00:45:38.348Z,10.1
2016-05-02T00:45:48.348Z,10.1
2016-05-02T00:45:58.364Z,10.2
2016-05-02T00:46:08.379Z,10.2
2016-05-02T00:46:18.379Z,10.1
2016-05-02T00:46:28.382Z,10.1
2016-05-02T00:46:38.382Z,10.1
2016-05-02T00:46:48.367Z,10.1
2016-05-02T00:46:58.367Z,10.1
2016-05-02T00:47:08.398Z,10.1
2016-05-02T00:47:18.382Z,10.1
2016-05-02T00:47:28.384Z,10.1
2016-05-02T00:47:38.228Z,10.1
2016-05-02T00:47:48.400Z,10.1
2016-05-02T00:47:58.384Z,10.1
2016-05-02T00:48:08.384Z,10
2016-05-02T00:48:18.384Z,10.1
2016-05-02T00:48:28.387Z,10.1
2016-05-02T00:48:38.403Z,10
2016-05-02T00:48:48.403Z,10.1
2016-05-02T00:48:58.403Z,10.1
2016-05-02T00:49:08.403Z,10
2016-05-02T00:49:18.403Z,10
2016-05-02T00:49:28.406Z,10
2016-05-02T00:49:38.406Z,9.9
2016-05-02T00:49:48.406Z,10
2016-05-02T00:49:58.406Z,10
2016-05-02T00:50:08.406Z,10
2016-05-02T00:50:18.422Z,10.1
2016-05-02T00:50:28.425Z,10
2016-05-02T00:50:38.409Z,10
2016-05-02T00:50:48.284Z,10
2016-05-02T00:50:59.518Z,10
2016-05-02T00:51:09.143Z,9.9
2016-05-02T00:51:18.425Z,10
2016-05-02T00:51:28.442Z,10
2016-05-02T00:51:38.427Z,10
2016-05-02T00:51:48.427Z,9.9
2016-05-02T00:51:58.286Z,10
2016-05-02T00:52:08.427Z,9.9
2016-05-02T00:52:18.442Z,9.9
2016-05-02T00:52:28.445Z,10
2016-05-02T00:52:38.445Z,10
2016-05-02T00:52:48.445Z,10
2016-05-02T00:52:58.445Z,10.1
2016-05-02T00:53:08.445Z,10
2016-05-02T00:53:18.461Z,10.1
2016-05-02T00:53:28.292Z,10
2016-05-02T00:53:38.448Z,10
2016-05-02T00:53:48.448Z,9.9
2016-05-02T00:53:58.448Z,9.9
2016-05-02T00:54:08.464Z,10
2016-05-02T00:54:18.464Z,10
2016-05-02T00:54:28.466Z,10
2016-05-02T00:54:38.466Z,10
2016-05-02T00:54:48.466Z,10
2016-05-02T00:54:58.466Z,9.9
2016-05-02T00:55:08.466Z,9.9
2016-05-02T00:55:18.482Z,9.9
2016-05-02T00:55:28.469Z,10
2016-05-02T00:55:38.469Z,9.9
2016-05-02T00:55:48.469Z,10
2016-05-02T00:55:58.485Z,10
2016-05-02T00:56:08.485Z,9.9
2016-05-02T00:56:18.328Z,10
2016-05-02T00:56:28.331Z,10
2016-05-02T00:56:38.488Z,9.9
2016-05-02T00:56:48.347Z,9.9
2016-05-02T00:56:58.488Z,10
2016-05-02T00:57:08.347Z,9.9
2016-05-02T00:57:18.488Z,10
2016-05-02T00:57:28.349Z,9.9
2016-05-02T00:57:38.505Z,9.9
2016-05-02T00:57:48.505Z,9.9
2016-05-02T00:57:58.490Z,10
2016-05-02T00:58:08.349Z,10
2016-05-02T00:58:18.505Z,9.9
2016-05-02T00:58:28.508Z,9.9
2016-05-02T00:58:38.368Z,9.9
2016-05-02T00:58:48.508Z,10
2016-05-02T00:58:58.508Z,10
2016-05-02T00:59:08.508Z,10
2016-05-02T00:59:18.368Z,9.9
2016-05-02T00:59:28.371Z,10
2016-05-02T00:59:38.527Z,9.9
2016-05-02T00:59:48.527Z,9.9
2016-05-02T00:59:58.527Z,10
2016-05-02T01:00:08.527Z,10
2016-05-02T01:00:18.527Z,9.9
2016-05-02T01:00:28.529Z,9.9
2016-05-02T01:00:38.544Z,10
2016-05-02T01:00:48.544Z,9.8
2016-05-02T01:00:58.529Z,9.9
2016-05-02T01:01:08.544Z,9.8
2016-05-02T01:01:18.544Z,9.9
2016-05-02T01:01:28.547Z,9.8
2016-05-02T01:01:38.547Z,9.8
2016-05-02T01:01:48.547Z,9.8
2016-05-02T01:01:58.391Z,9.9
2016-05-02T01:02:08.547Z,9.8
2016-05-02T01:02:18.563Z,9.9
2016-05-02T01:02:28.559Z,9.9
2016-05-02T01:02:38.419Z,9.8
2016-05-02T01:02:48.575Z,9.9
2016-05-02T01:02:58.575Z,9.8
2016-05-02T01:03:08.575Z,9.8
2016-05-02T01:03:18.575Z,9.8
2016-05-02T01:03:28.622Z,9.8
2016-05-02T01:03:38.622Z,9.8
2016-05-02T01:03:48.622Z,9.7
2016-05-02T01:03:58.622Z,9.8
2016-05-02T01:04:08.638Z,9.8
2016-05-02T01:04:18.638Z,9.8
2016-05-02T01:04:28.700Z,9.8
2016-05-02T01:04:38.685Z,9.8
2016-05-02T01:04:48.685Z,9.8
2016-05-02T01:04:58.685Z,9.7
2016-05-02T01:05:08.685Z,9.7
2016-05-02T01:05:18.685Z,9.7
2016-05-02T01:05:28.732Z,9.7
2016-05-02T01:05:38.732Z,9.7
2016-05-02T01:05:49.200Z,9.7
2016-05-02T01:05:58.732Z,9.7
2016-05-02T01:06:09.997Z,9.7
2016-05-02T01:06:18.591Z,9.7
2016-05-02T01:06:29.059Z,9.7
2016-05-02T01:06:38.637Z,9.7
2016-05-02T01:06:48.793Z,9.6
2016-05-02T01:06:58.793Z,9.7
2016-05-02T01:07:08.653Z,9.7
2016-05-02T01:07:18.825Z,9.6
2016-05-02T01:07:28.834Z,9.7
2016-05-02T01:07:38.694Z,9.7
2016-05-02T01:07:48.834Z,9.6
2016-05-02T01:07:58.850Z,9.6
2016-05-02T01:08:08.694Z,9.6
2016-05-02T01:08:18.850Z,9.7
2016-05-02T01:08:28.869Z,9.6
2016-05-02T01:08:38.869Z,9.6
2016-05-02T01:08:48.869Z,9.6
2016-05-02T01:08:58.713Z,9.5
2016-05-02T01:09:08.885Z,9.6
2016-05-02T01:09:18.885Z,9.6
2016-05-02T01:09:28.888Z,9.6
2016-05-02T01:09:38.888Z,9.6
2016-05-02T01:09:48.904Z,9.5
2016-05-02T01:09:58.904Z,9.5
2016-05-02T01:10:08.904Z,9.6
2016-05-02T01:10:18.904Z,9.5
2016-05-02T01:10:28.766Z,9.6
2016-05-02T01:10:38.923Z,9.6
2016-05-02T01:10:48.923Z,9.5
2016-05-02T01:10:58.923Z,9.5
2016-05-02T01:11:08.923Z,9.5
2016-05-02T01:11:18.938Z,9.6
2016-05-02T01:11:28.957Z,9.5
2016-05-02T01:11:38.942Z,9.4
2016-05-02T01:11:48.942Z,9.5
2016-05-02T01:11:58.801Z,9.5
2016-05-02T01:12:08.957Z,9.5
2016-05-02T01:12:18.957Z,9.5
2016-05-02T01:12:28.974Z,9.5
2016-05-02T01:12:39.084Z,9.5
2016-05-02T01:12:48.834Z,9.5
2016-05-02T01:12:58.974Z,9.5
2016-05-02T01:13:08.834Z,9.5
2016-05-02T01:13:18.990Z,9.5
2016-05-02T01:13:28.998Z,9.5
2016-05-02T01:13:38.982Z,9.5
2016-05-02T01:13:48.998Z,9.5
2016-05-02T01:13:58.842Z,9.5
2016-05-02T01:14:08.998Z,9.6
2016-05-02T01:14:18.998Z,9.5
2016-05-02T01:14:29.006Z,9.5
2016-05-02T01:14:39.006Z,9.5
2016-05-02T01:14:49.006Z,9.4
2016-05-02T01:14:59.006Z,9.4
2016-05-02T01:15:09.006Z,9.5
2016-05-02T01:15:18.865Z,9.5
2016-05-02T01:15:29.030Z,9.5
2016-05-02T01:15:39.030Z,9.4
2016-05-02T01:15:48.874Z,9.4
2016-05-02T01:15:59.030Z,9.4
2016-05-02T01:16:09.030Z,9.4
2016-05-02T01:16:19.030Z,9.5
2016-05-02T01:16:29.039Z,9.4
2016-05-02T01:16:38.899Z,9.5
2016-05-02T01:16:49.055Z,9.4
2016-05-02T01:16:59.055Z,9.4
2016-05-02T01:17:09.055Z,9.4
2016-05-02T01:17:19.055Z,9.4
2016-05-02T01:17:29.062Z,9.4
2016-05-02T01:17:38.906Z,9.4
2016-05-02T01:17:49.062Z,9.4
2016-05-02T01:17:59.062Z,9.4
2016-05-02T01:18:09.062Z,9.4
2016-05-02T01:18:19.062Z,9.4
2016-05-02T01:18:29.067Z,9.4
2016-05-02T01:18:39.083Z,9.4
2016-05-02T01:18:49.067Z,9.4
2016-05-02T01:18:58.942Z,9.4
2016-05-02T01:19:08.926Z,9.3
2016-05-02T01:19:19.083Z,9.3
2016-05-02T01:19:29.087Z,9.4
2016-05-02T01:19:39.087Z,9.4
2016-05-02T01:19:49.087Z,9.4
2016-05-02T01:19:59.102Z,9.4
2016-05-02T01:20:09.087Z,9.4
2016-05-02T01:20:19.102Z,9.4
2016-05-02T01:20:29.092Z,9.4
2016-05-02T01:20:39.107Z,9.4
2016-05-02T01:20:48.951Z,9.4
2016-05-02T01:20:59.107Z,9.4
2016-05-02T01:21:09.139Z,9.4
2016-05-02T01:21:19.107Z,9.4
2016-05-02T01:21:29.111Z,9.4
2016-05-02T01:21:39.111Z,9.5
2016-05-02T01:21:49.111Z,9.4
2016-05-02T01:21:58.971Z,9.4
2016-05-02T01:22:09.111Z,9.4
2016-05-02T01:22:19.111Z,9.5
2016-05-02T01:22:29.132Z,9.4
2016-05-02T01:22:39.116Z,9.4
2016-05-02T01:22:49.132Z,9.4
2016-05-02T01:22:59.132Z,9.4
2016-05-02T01:23:09.132Z,9.4
2016-05-02T01:23:19.132Z,9.4
2016-05-02T01:23:29.135Z,9.4
2016-05-02T01:23:39.135Z,9.4
2016-05-02T01:23:49.135Z,9.4
2016-05-02T01:23:59.151Z,9.4
2016-05-02T01:24:09.151Z,9.4
2016-05-02T01:24:19.135Z,9.4
2016-05-02T01:24:29.155Z,9.4
2016-05-02T01:24:39.155Z,9.4
2016-05-02T01:24:49.139Z,9.4
2016-05-02T01:24:59.155Z,9.4
2016-05-02T01:25:09.155Z,9.4
2016-05-02T01:25:19.155Z,9.4
2016-05-02T01:25:29.018Z,9.4
2016-05-02T01:25:39.018Z,9.4
2016-05-02T01:25:49.159Z,9.4
2016-05-02T01:25:59.174Z,9.4
2016-05-02T01:26:09.174Z,9.4
2016-05-02T01:26:19.174Z,9.4
2016-05-02T01:26:29.161Z,9.3
2016-05-02T01:26:39.176Z,9.4
2016-05-02T01:26:49.036Z,9.3
2016-05-02T01:26:59.176Z,9.4
2016-05-02T01:27:09.176Z,9.4
2016-05-02T01:27:19.176Z,9.4
2016-05-02T01:27:29.196Z,9.3
2016-05-02T01:27:39.180Z,9.4
2016-05-02T01:27:49.180Z,9.4
2016-05-02T01:27:59.196Z,9.4
2016-05-02T01:28:09.196Z,9.4
2016-05-02T01:28:19.196Z,9.4
2016-05-02T01:28:29.199Z,9.3
2016-05-02T01:28:39.199Z,9.4
2016-05-02T01:28:49.199Z,9.4
2016-05-02T01:28:59.199Z,9.4
2016-05-02T01:29:09.199Z,9.4
2016-05-02T01:29:19.199Z,9.3
2016-05-02T01:29:29.217Z,9.5
2016-05-02T01:29:39.217Z,9.4
2016-05-02T01:29:49.217Z,9.4
2016-05-02T01:29:59.217Z,9.4
2016-05-02T01:30:09.217Z,9.4
2016-05-02T01:30:19.217Z,9.4
2016-05-02T01:30:29.220Z,9.5
2016-05-02T01:30:39.220Z,9.3
2016-05-02T01:30:49.236Z,9.4
2016-05-02T01:30:59.080Z,9.4
2016-05-02T01:31:09.236Z,9.4
2016-05-02T01:31:19.220Z,9.3
2016-05-02T01:31:29.224Z,9.4
2016-05-02T01:31:39.224Z,9.4
2016-05-02T01:31:49.240Z,9.4
2016-05-02T01:31:59.240Z,9.4
2016-05-02T01:32:09.240Z,9.4
2016-05-02T01:32:19.365Z,9.3
2016-05-02T01:32:29.305Z,9.4
2016-05-02T01:32:39.101Z,9.4
2016-05-02T01:32:49.101Z,9.3
2016-05-02T01:32:59.242Z,9.4
2016-05-02T01:33:09.242Z,9.4
2016-05-02T01:33:19.242Z,9.4
2016-05-02T01:33:29.401Z,9.4
2016-05-02T01:33:39.261Z,9.4
2016-05-02T01:33:49.261Z,9.4
2016-05-02T01:33:59.104Z,9.4
2016-05-02T01:34:09.104Z,9.4
2016-05-02T01:34:19.261Z,9.4
2016-05-02T01:34:29.264Z,9.3
2016-05-02T01:34:39.107Z,9.3
2016-05-02T01:34:49.264Z,9.4
2016-05-02T01:34:59.279Z,9.4
2016-05-02T01:35:09.279Z,9.3
2016-05-02T01:35:19.264Z,9.3
2016-05-02T01:35:29.281Z,9.3
2016-05-02T01:35:39.281Z,9.3
2016-05-02T01:35:50.031Z,9.3
2016-05-02T01:35:59.156Z,9.4
2016-05-02T01:36:09.953Z,9.4
2016-05-02T01:36:20.203Z,9.3
2016-05-02T01:36:29.784Z,9.2
2016-05-02T01:36:39.284Z,9.3
2016-05-02T01:36:49.284Z,9.3
2016-05-02T01:36:59.144Z,9.3
2016-05-02T01:37:09.300Z,9.3
2016-05-02T01:37:19.144Z,9.2
2016-05-02T01:37:29.287Z,9.3
2016-05-02T01:37:39.303Z,9.3
2016-05-02T01:37:49.303Z,9.2
2016-05-02T01:37:59.303Z,9.3
2016-05-02T01:38:09.303Z,9.3
2016-05-02T01:38:19.319Z,9.2
2016-05-02T01:38:29.306Z,9.3
2016-05-02T01:38:39.306Z,9.2
2016-05-02T01:38:49.322Z,9.2
2016-05-02T01:38:59.165Z,9.3
2016-05-02T01:39:09.165Z,9.3
2016-05-02T01:39:19.306Z,9.3
2016-05-02T01:39:29.324Z,9.2
2016-05-02T01:39:39.324Z,9.3
2016-05-02T01:39:49.324Z,9.3
2016-05-02T01:39:59.324Z,9.3
2016-05-02T01:40:09.324Z,9.3
2016-05-02T01:40:19.324Z,9.3
2016-05-02T01:40:29.327Z,9.2
2016-05-02T01:40:39.327Z,9.2
2016-05-02T01:40:49.327Z,9.2
2016-05-02T01:40:59.327Z,9.3
2016-05-02T01:41:09.342Z,9.2
2016-05-02T01:41:19.342Z,9.2
2016-05-02T01:41:29.344Z,9.2
2016-05-02T01:41:39.344Z,9.2
2016-05-02T01:41:49.344Z,9.2
2016-05-02T01:41:59.204Z,9.3
2016-05-02T01:42:09.344Z,9.3
2016-05-02T01:42:19.360Z,9.2
2016-05-02T01:42:29.347Z,9.2
2016-05-02T01:42:39.363Z,9.2
2016-05-02T01:42:49.363Z,9.3
2016-05-02T01:42:59.207Z,9.2
2016-05-02T01:43:09.363Z,9.3
2016-05-02T01:43:19.207Z,9.3
2016-05-02T01:43:29.366Z,9.2
2016-05-02T01:43:39.366Z,9.2
2016-05-02T01:43:49.381Z,9.2
2016-05-02T01:43:59.366Z,9.2
2016-05-02T01:44:09.366Z,9.2
2016-05-02T01:44:19.366Z,9.2
2016-05-02T01:44:29.384Z,9.2
2016-05-02T01:44:39.369Z,9.2
2016-05-02T01:44:49.369Z,9.2
2016-05-02T01:44:59.384Z,9.2
2016-05-02T01:45:09.384Z,9.3
2016-05-02T01:45:19.384Z,9.2
2016-05-02T01:45:29.402Z,9.2
2016-05-02T01:45:39.386Z,9.2
2016-05-02T01:45:49.386Z,9.2
2016-05-02T01:45:59.246Z,9.2
2016-05-02T01:46:09.386Z,9.2
2016-05-02T01:46:19.386Z,9.2
2016-05-02T01:46:29.405Z,9.2
2016-05-02T01:46:39.389Z,9.2
2016-05-02T01:46:49.421Z,9.2
2016-05-02T01:46:59.405Z,9.1
2016-05-02T01:47:09.405Z,9.2
2016-05-02T01:47:19.405Z,9.1
2016-05-02T01:47:29.408Z,9.2
2016-05-02T01:47:39.408Z,9.2
2016-05-02T01:47:49.408Z,9.3
2016-05-02T01:47:59.408Z,9.2
2016-05-02T01:48:09.408Z,9.1
2016-05-02T01:48:19.408Z,9.1
2016-05-02T01:48:29.426Z,9.1
2016-05-02T01:48:39.269Z,9.2
2016-05-02T01:48:49.426Z,9.2
2016-05-02T01:48:59.426Z,9.1
2016-05-02T01:49:09.426Z,9.1
2016-05-02T01:49:19.269Z,9.2
2016-05-02T01:49:29.429Z,9.1
2016-05-02T01:49:39.429Z,9.2
2016-05-02T01:49:49.429Z,9.2
2016-05-02T01:49:59.429Z,9.1
2016-05-02T01:50:09.429Z,9.2
2016-05-02T01:50:19.444Z,9.2
2016-05-02T01:50:29.432Z,9.2
2016-05-02T01:50:39.447Z,9.1
2016-05-02T01:50:49.291Z,9.2
2016-05-02T01:50:59.447Z,9.2
2016-05-02T01:51:09.447Z,9.2
2016-05-02T01:51:20.885Z,9.2
2016-05-02T01:51:30.638Z,9.2
2016-05-02T01:51:39.466Z,9.2
2016-05-02T01:51:49.466Z,9.1
2016-05-02T01:51:59.466Z,9.2
2016-05-02T01:52:09.450Z,9.1
2016-05-02T01:52:19.466Z,9.2
2016-05-02T01:52:29.468Z,9.1
2016-05-02T01:52:39.468Z,9.1
2016-05-02T01:52:49.484Z,9.1
2016-05-02T01:52:59.468Z,9.1
2016-05-02T01:53:09.468Z,9.1
2016-05-02T01:53:19.468Z,9.2
2016-05-02T01:53:29.471Z,9.1
2016-05-02T01:53:39.471Z,9.1
2016-05-02T01:53:49.330Z,9.1
2016-05-02T01:53:59.471Z,9
2016-05-02T01:54:09.487Z,9.1
2016-05-02T01:54:19.487Z,9.1
2016-05-02T01:54:29.332Z,9.1
2016-05-02T01:54:39.489Z,9.1
2016-05-02T01:54:49.489Z,9.1
2016-05-02T01:54:59.489Z,9
2016-05-02T01:55:09.504Z,9.1
2016-05-02T01:55:19.489Z,9.1
2016-05-02T01:55:29.507Z,9.1
2016-05-02T01:55:39.492Z,9.1
2016-05-02T01:55:49.492Z,9.1
2016-05-02T01:55:59.507Z,9.1
2016-05-02T01:56:09.507Z,9.1
2016-05-02T01:56:19.507Z,9.1
2016-05-02T01:56:29.510Z,9.1
2016-05-02T01:56:39.510Z,9.1
2016-05-02T01:56:49.510Z,9.1
2016-05-02T01:56:59.510Z,9.1
2016-05-02T01:57:09.526Z,9.1
2016-05-02T01:57:19.510Z,9.1
2016-05-02T01:57:29.513Z,9.1
2016-05-02T01:57:39.529Z,9.1
2016-05-02T01:57:49.513Z,9.1
2016-05-02T01:57:59.529Z,9.1
2016-05-02T01:58:09.513Z,9.1
2016-05-02T01:58:19.529Z,9.1
2016-05-02T01:58:29.531Z,9.1
2016-05-02T01:58:39.546Z,9.2
2016-05-02T01:58:49.531Z,9.1
2016-05-02T01:58:59.531Z,9.1
2016-05-02T01:59:09.531Z,9.1
2016-05-02T01:59:19.531Z,9.1
2016-05-02T01:59:29.534Z,9.1
2016-05-02T01:59:39.549Z,9.1
2016-05-02T01:59:49.549Z,9.1
2016-05-02T01:59:59.549Z,9.1
2016-05-02T02:00:09.549Z,9.1
2016-05-02T02:00:19.549Z,9.1
2016-05-02T02:00:29.552Z,9.1
2016-05-02T02:00:39.552Z,9.1
2016-05-02T02:00:49.552Z,9.1
2016-05-02T02:00:59.552Z,9.1
2016-05-02T02:01:09.552Z,9.1
2016-05-02T02:01:19.552Z,9.2
2016-05-02T02:01:29.570Z,9.1
2016-05-02T02:01:39.570Z,9.2
2016-05-02T02:01:49.570Z,9.1
2016-05-02T02:01:59.570Z,9.1
2016-05-02T02:02:09.414Z,9.1
2016-05-02T02:02:19.570Z,9.2
2016-05-02T02:02:29.573Z,9.1
2016-05-02T02:02:39.573Z,9.2
2016-05-02T02:02:49.573Z,9.2
2016-05-02T02:02:59.573Z,9.2
2016-05-02T02:03:09.432Z,9.2
2016-05-02T02:03:19.432Z,9.1
2016-05-02T02:03:29.576Z,9.2
2016-05-02T02:03:39.576Z,9.1
2016-05-02T02:03:49.592Z,9.1
2016-05-02T02:03:59.592Z,9.2
2016-05-02T02:04:09.607Z,9.2
2016-05-02T02:04:19.592Z,9.1
2016-05-02T02:04:29.594Z,9.2
2016-05-02T02:04:39.594Z,9.2
2016-05-02T02:04:49.594Z,9.1
2016-05-02T02:04:59.594Z,9.2
2016-05-02T02:05:09.594Z,9.2
2016-05-02T02:05:19.453Z,9.2
2016-05-02T02:05:29.612Z,9.2
2016-05-02T02:05:39.597Z,9.1
2016-05-02T02:05:50.737Z,9.1
2016-05-02T02:05:59.612Z,9.2
2016-05-02T02:06:09.612Z,9.1
2016-05-02T02:06:20.237Z,9.1
2016-05-02T02:06:31.006Z,9.2
2016-05-02T02:06:39.615Z,9.2
2016-05-02T02:06:49.631Z,9.2
2016-05-02T02:06:59.631Z,9.2
2016-05-02T02:07:09.631Z,9.2
2016-05-02T02:07:19.631Z,9.1
2016-05-02T02:07:29.617Z,9.2
2016-05-02T02:07:39.617Z,9.1
2016-05-02T02:07:49.633Z,9.2
2016-05-02T02:07:59.492Z,9.2
2016-05-02T02:08:09.633Z,9.1
2016-05-02T02:08:19.649Z,9.2
2016-05-02T02:08:29.636Z,9.2
2016-05-02T02:08:39.636Z,9.2
2016-05-02T02:08:49.636Z,9.2
2016-05-02T02:08:59.495Z,9.1
2016-05-02T02:09:09.636Z,9.2
2016-05-02T02:09:19.652Z,9.2
2016-05-02T02:09:29.655Z,9.2
2016-05-02T02:09:39.639Z,9.2
2016-05-02T02:09:49.655Z,9.1
2016-05-02T02:09:59.655Z,9.1
2016-05-02T02:10:09.655Z,9.1
2016-05-02T02:10:19.655Z,9.1
2016-05-02T02:10:29.657Z,9.3
2016-05-02T02:10:39.657Z,9.2
2016-05-02T02:10:49.657Z,9.1
2016-05-02T02:10:59.516Z,9.1
2016-05-02T02:11:09.672Z,9.2
2016-05-02T02:11:19.672Z,9.1
2016-05-02T02:11:29.675Z,9.2
2016-05-02T02:11:39.535Z,9.1
2016-05-02T02:11:49.675Z,9.1
2016-05-02T02:11:59.691Z,9.2
2016-05-02T02:12:09.535Z,9.1
2016-05-02T02:12:19.675Z,9.1
2016-05-02T02:12:29.678Z,9.3
2016-05-02T02:12:39.678Z,9.1
2016-05-02T02:12:49.694Z,9.1
2016-05-02T02:12:59.538Z,9.1
2016-05-02T02:13:09.694Z,9.2
2016-05-02T02:13:19.538Z,9.2
2016-05-02T02:13:29.697Z,9.1
2016-05-02T02:13:39.697Z,9.2
2016-05-02T02:13:49.697Z,9.2
2016-05-02T02:13:59.697Z,9.1
2016-05-02T02:14:09.697Z,9.2
2016-05-02T02:14:19.697Z,9.1
2016-05-02T02:14:29.699Z,9.1
2016-05-02T02:14:39.699Z,9.1
2016-05-02T02:14:49.558Z,9.1
2016-05-02T02:14:59.714Z,9.3
2016-05-02T02:15:09.714Z,9.2
2016-05-02T02:15:19.714Z,9.2
2016-05-02T02:15:29.717Z,9.2
2016-05-02T02:15:39.733Z,9.3
2016-05-02T02:15:49.717Z,9.1
2016-05-02T02:15:59.717Z,9.2
2016-05-02T02:16:09.717Z,9.1
2016-05-02T02:16:19.717Z,9.2